createdAt,value
2019-06-29T00:02:08.892Z,-68
2019-06-29T00:04:36.700Z,-68
2019-06-29T00:07:04.710Z,-69
2019-06-29T00:09:32.536Z,-68
2019-06-29T00:12:00.384Z,-69
2019-06-29T00:14:28.471Z,-69
2019-06-29T00:16:56.274Z,-68
2019-06-29T00:19:24.082Z,-68
2019-06-29T00:21:52.196Z,-67
2019-06-29T00:24:20.015Z,-68
2019-06-29T00:26:47.828Z,-68
2019-06-29T00:29:15.643Z,-68
2019-06-29T00:31:43.441Z,-69
2019-06-29T00:34:11.296Z,-68
2019-06-29T00:36:39.072Z,-68
2019-06-29T00:39:06.888Z,-67
2019-06-29T00:41:34.818Z,-67
2019-06-29T00:44:02.641Z,-68
2019-06-29T00:46:33.309Z,-68
2019-06-29T00:49:01.203Z,-69
2019-06-29T00:51:28.981Z,-68
2019-06-29T00:53:56.757Z,-69
2019-06-29T00:56:24.693Z,-66
2019-06-29T00:58:52.528Z,-68
2019-06-29T01:01:20.327Z,-68
2019-06-29T01:03:48.113Z,-68
2019-06-29T01:06:15.952Z,-67
2019-06-29T01:08:43.725Z,-69
2019-06-29T01:11:11.529Z,-67
2019-06-29T01:13:48.080Z,-69
2019-06-29T01:16:09.075Z,-68
2019-06-29T01:18:36.907Z,-68
2019-06-29T01:21:04.777Z,-68
2019-06-29T01:23:32.568Z,-67
2019-06-29T01:26:00.403Z,-70
2019-06-29T01:28:28.203Z,-68
2019-06-29T01:30:56.028Z,-68
2019-06-29T01:33:23.826Z,-68
2019-06-29T01:35:52.869Z,-72
2019-06-29T01:38:20.665Z,-68
2019-06-29T01:40:48.484Z,-69
2019-06-29T01:43:16.589Z,-68
2019-06-29T01:45:44.408Z,-69
2019-06-29T01:48:12.263Z,-68
2019-06-29T01:50:40.098Z,-68
2019-06-29T01:53:07.859Z,-69
2019-06-29T01:55:35.673Z,-69
2019-06-29T01:58:03.535Z,-68
2019-06-29T02:00:31.354Z,-68
2019-06-29T02:03:01.417Z,-68
2019-06-29T02:05:29.344Z,-70
2019-06-29T02:07:58.590Z,-66
2019-06-29T02:10:27.203Z,-67
2019-06-29T02:12:54.970Z,-68
2019-06-29T02:15:23.096Z,-69
2019-06-29T02:17:52.419Z,-67
2019-06-29T02:20:20.242Z,-71
2019-06-29T02:22:48.068Z,-69
2019-06-29T02:25:17.910Z,-68
2019-06-29T02:27:47.785Z,-69
2019-06-29T02:30:17.312Z,-69
2019-06-29T02:32:45.154Z,-67
2019-06-29T02:35:12.985Z,-68
2019-06-29T02:37:40.866Z,-68
2019-06-29T02:40:09.544Z,-68
2019-06-29T02:42:37.725Z,-68
2019-06-29T02:45:06.759Z,-68
2019-06-29T02:47:34.564Z,-68
2019-06-29T02:50:02.742Z,-68
2019-06-29T02:52:30.620Z,-69
2019-06-29T02:54:58.470Z,-67
2019-06-29T02:57:26.242Z,-67
2019-06-29T02:59:54.070Z,-68
2019-06-29T03:02:21.880Z,-68
2019-06-29T03:04:49.726Z,-69
2019-06-29T03:07:17.529Z,-68
2019-06-29T03:09:45.334Z,-68
2019-06-29T03:12:13.136Z,-68
2019-06-29T03:14:42.123Z,-68
2019-06-29T03:17:09.917Z,-68
2019-06-29T03:19:37.745Z,-69
2019-06-29T03:22:05.536Z,-69
2019-06-29T03:24:33.500Z,-67
2019-06-29T03:27:01.275Z,-68
2019-06-29T03:29:29.065Z,-69
2019-06-29T03:31:56.885Z,-68
2019-06-29T03:34:24.888Z,-68
2019-06-29T03:36:52.692Z,-67
2019-06-29T03:39:20.528Z,-67
2019-06-29T03:41:48.292Z,-69
2019-06-29T03:44:16.052Z,-68
2019-06-29T03:46:43.860Z,-68
2019-06-29T03:49:11.634Z,-68
2019-06-29T03:51:39.476Z,-68
2019-06-29T03:54:07.315Z,-69
2019-06-29T03:56:35.121Z,-68
2019-06-29T03:59:03.003Z,-69
2019-06-29T04:01:37.083Z,-70
2019-06-29T04:04:11.578Z,-67
2019-06-29T04:07:00.486Z,-67
2019-06-29T04:10:23.603Z,-68
2019-06-29T04:13:31.545Z,-68
2019-06-29T04:16:08.713Z,-68
2019-06-29T04:19:01.594Z,-67
2019-06-29T04:21:33.547Z,-69
2019-06-29T04:24:19.931Z,-67
2019-06-29T04:27:22.531Z,-69
2019-06-29T04:30:25.857Z,-68
2019-06-29T04:33:02.431Z,-68
2019-06-29T04:35:45.692Z,-68
2019-06-29T04:38:56.072Z,-67
2019-06-29T04:41:47.221Z,-67
2019-06-29T04:44:15.541Z,-67
2019-06-29T04:46:43.334Z,-70
2019-06-29T04:49:11.249Z,-67
2019-06-29T04:51:39.055Z,-67
2019-06-29T04:54:07.375Z,-69
2019-06-29T04:56:43.931Z,-68
2019-06-29T04:59:07.615Z,-67
2019-06-29T05:01:36.902Z,-69
2019-06-29T05:04:04.685Z,-66
2019-06-29T05:06:35.301Z,-69
2019-06-29T05:09:04.452Z,-68
2019-06-29T05:11:32.245Z,-68
2019-06-29T05:14:00.065Z,-71
2019-06-29T05:16:28.157Z,-69
2019-06-29T05:18:58.480Z,-69
2019-06-29T05:21:25.663Z,-70
2019-06-29T05:23:54.943Z,-67
2019-06-29T05:26:23.017Z,-70
2019-06-29T05:28:50.859Z,-69
2019-06-29T05:31:18.659Z,-69
2019-06-29T05:33:46.465Z,-68
2019-06-29T05:36:14.300Z,-69
2019-06-29T05:38:42.185Z,-68
2019-06-29T05:41:09.970Z,-70
2019-06-29T05:43:37.780Z,-67
2019-06-29T05:46:05.707Z,-70
2019-06-29T05:48:33.545Z,-69
2019-06-29T05:51:01.493Z,-69
2019-06-29T05:53:29.375Z,-71
2019-06-29T05:55:57.172Z,-69
2019-06-29T05:58:25.048Z,-69
2019-06-29T06:00:52.866Z,-69
2019-06-29T06:03:20.670Z,-69
2019-06-29T06:05:48.501Z,-67
2019-06-29T06:08:16.350Z,-68
2019-06-29T06:10:44.384Z,-68
2019-06-29T06:13:12.841Z,-67
2019-06-29T06:15:40.711Z,-71
2019-06-29T06:18:08.550Z,-69
2019-06-29T06:20:36.374Z,-69
2019-06-29T06:23:04.231Z,-68
2019-06-29T06:25:31.999Z,-69
2019-06-29T06:27:59.797Z,-67
2019-06-29T06:30:27.543Z,-69
2019-06-29T06:32:55.384Z,-68
2019-06-29T06:35:23.184Z,-69
2019-06-29T06:37:51.092Z,-70
2019-06-29T06:40:19.988Z,-68
2019-06-29T06:42:47.725Z,-68
2019-06-29T06:45:17.294Z,-70
2019-06-29T06:47:45.082Z,-68
2019-06-29T06:50:13.400Z,-71
2019-06-29T06:52:44.074Z,-70
2019-06-29T06:55:12.116Z,-71
2019-06-29T06:57:49.556Z,-71
2019-06-29T07:00:11.307Z,-71
2019-06-29T07:02:39.168Z,-70
2019-06-29T07:05:07.886Z,-70
2019-06-29T07:07:35.738Z,-70
2019-06-29T07:10:03.996Z,-70
2019-06-29T07:12:31.832Z,-69
2019-06-29T07:14:59.631Z,-71
2019-06-29T07:17:27.568Z,-70
2019-06-29T07:19:55.450Z,-72
2019-06-29T07:22:25.069Z,-70
2019-06-29T07:24:52.904Z,-70
2019-06-29T07:27:20.797Z,-70
2019-06-29T07:29:51.749Z,-71
2019-06-29T07:32:19.617Z,-71
2019-06-29T07:34:47.582Z,-70
2019-06-29T07:37:15.794Z,-70
2019-06-29T07:39:43.592Z,-71
2019-06-29T07:42:11.391Z,-71
2019-06-29T07:44:39.289Z,-69
2019-06-29T07:47:07.350Z,-70
2019-06-29T07:49:35.269Z,-70
2019-06-29T07:52:09.923Z,-72
2019-06-29T07:54:44.433Z,-69
2019-06-29T07:57:12.370Z,-71
2019-06-29T07:59:41.842Z,-71
2019-06-29T08:02:09.748Z,-68
2019-06-29T08:04:37.982Z,-70
2019-06-29T08:07:05.866Z,-73
2019-06-29T08:09:33.783Z,-71
2019-06-29T08:12:01.716Z,-71
2019-06-29T08:14:29.507Z,-71
2019-06-29T08:16:57.456Z,-69
2019-06-29T08:19:25.637Z,-71
2019-06-29T08:21:53.519Z,-70
2019-06-29T08:24:21.411Z,-71
2019-06-29T08:26:50.467Z,-70
2019-06-29T08:29:19.055Z,-70
2019-06-29T08:31:46.890Z,-69
2019-06-29T08:34:14.787Z,-74
2019-06-29T08:36:42.609Z,-68
2019-06-29T08:39:10.426Z,-69
2019-06-29T08:41:38.543Z,-70
2019-06-29T08:44:06.346Z,-69
2019-06-29T08:46:34.397Z,-70
2019-06-29T08:49:02.197Z,-71
2019-06-29T08:51:30.762Z,-70
2019-06-29T08:53:58.653Z,-72
2019-06-29T08:56:26.491Z,-72
2019-06-29T08:58:55.107Z,-69
2019-06-29T09:01:22.954Z,-69
2019-06-29T09:03:50.972Z,-72
2019-06-29T09:06:19.283Z,-69
2019-06-29T09:08:47.145Z,-71
2019-06-29T09:11:15.071Z,-69
2019-06-29T09:13:42.910Z,-70
2019-06-29T09:16:10.746Z,-71
2019-06-29T09:18:38.659Z,-69
2019-06-29T09:21:08.281Z,-69
2019-06-29T09:23:36.121Z,-70
2019-06-29T09:26:04.028Z,-71
2019-06-29T09:28:31.940Z,-72
2019-06-29T09:31:01.370Z,-71
2019-06-29T09:33:29.590Z,-73
2019-06-29T09:35:58.597Z,-68
2019-06-29T09:38:26.518Z,-70
2019-06-29T09:40:54.459Z,-70
2019-06-29T09:43:22.427Z,-69
2019-06-29T09:45:51.971Z,-69
2019-06-29T09:48:21.419Z,-69
2019-06-29T09:50:49.313Z,-70
2019-06-29T09:53:17.249Z,-70
2019-06-29T09:55:45.061Z,-69
2019-06-29T09:58:15.367Z,-68
2019-06-29T10:00:42.930Z,-69
2019-06-29T10:03:11.749Z,-70
2019-06-29T10:05:42.286Z,-68
2019-06-29T10:08:09.803Z,-69
2019-06-29T10:10:37.640Z,-70
2019-06-29T10:13:08.868Z,-70
2019-06-29T10:15:35.479Z,-69
2019-06-29T10:18:03.396Z,-69
2019-06-29T10:20:32.823Z,-71
2019-06-29T10:23:00.924Z,-67
2019-06-29T10:25:28.867Z,-69
2019-06-29T10:27:56.730Z,-70
2019-06-29T10:30:24.581Z,-70
2019-06-29T10:32:52.439Z,-68
2019-06-29T10:35:22.429Z,-69
2019-06-29T10:37:51.758Z,-69
2019-06-29T10:40:22.167Z,-71
2019-06-29T10:42:52.420Z,-69
2019-06-29T10:45:21.902Z,-69
2019-06-29T10:47:51.802Z,-71
2019-06-29T10:50:22.137Z,-69
2019-06-29T10:52:52.070Z,-68
2019-06-29T10:55:22.503Z,-68
2019-06-29T10:57:52.267Z,-71
2019-06-29T11:00:26.363Z,-68
2019-06-29T11:02:52.349Z,-69
2019-06-29T11:05:20.194Z,-68
2019-06-29T11:07:48.008Z,-70
2019-06-29T11:10:16.312Z,-69
2019-06-29T11:12:44.774Z,-69
2019-06-29T11:15:14.531Z,-68
2019-06-29T11:17:42.953Z,-71
2019-06-29T11:20:12.164Z,-70
2019-06-29T11:22:41.770Z,-70
2019-06-29T11:25:09.704Z,-69
2019-06-29T11:27:37.502Z,-69
2019-06-29T11:30:27.018Z,-70
2019-06-29T11:32:36.663Z,-70
2019-06-29T11:35:06.938Z,-67
2019-06-29T11:37:35.217Z,-69
2019-06-29T11:40:06.196Z,-68
2019-06-29T11:42:35.084Z,-69
2019-06-29T11:45:03.533Z,-69
2019-06-29T11:47:32.911Z,-70
2019-06-29T11:50:06.672Z,-70
2019-06-29T11:52:32.676Z,-68
2019-06-29T11:55:02.992Z,-70
2019-06-29T11:57:30.281Z,-68
2019-06-29T11:59:58.071Z,-71
2019-06-29T12:02:25.879Z,-67
2019-06-29T12:04:53.748Z,-70
2019-06-29T12:07:22.265Z,-66
2019-06-29T12:09:50.697Z,-67
2019-06-29T12:12:18.584Z,-69
2019-06-29T12:14:46.421Z,-69
2019-06-29T12:17:14.217Z,-71
2019-06-29T12:19:42.920Z,-70
2019-06-29T12:22:12.161Z,-70
2019-06-29T12:24:40.503Z,-69
2019-06-29T12:27:08.316Z,-71
2019-06-29T12:29:36.119Z,-68
2019-06-29T12:32:03.945Z,-69
2019-06-29T12:34:34.566Z,-68
2019-06-29T12:37:02.993Z,-70
2019-06-29T12:39:31.750Z,-68
2019-06-29T12:42:01.696Z,-69
2019-06-29T12:44:33.354Z,-70
2019-06-29T12:47:01.553Z,-70
2019-06-29T12:49:31.852Z,-70
2019-06-29T12:51:59.057Z,-70
2019-06-29T12:54:26.861Z,-72
2019-06-29T12:56:54.728Z,-68
2019-06-29T12:59:22.533Z,-71
2019-06-29T13:01:50.408Z,-69
2019-06-29T13:04:18.238Z,-68
2019-06-29T13:06:46.101Z,-70
2019-06-29T13:09:13.886Z,-69
2019-06-29T13:11:41.708Z,-71
2019-06-29T13:14:09.554Z,-68
2019-06-29T13:16:37.329Z,-69
2019-06-29T13:19:05.170Z,-70
2019-06-29T13:21:33.057Z,-69
2019-06-29T13:24:00.834Z,-69
2019-06-29T13:26:28.761Z,-67
2019-06-29T13:28:56.606Z,-69
2019-06-29T13:31:35.900Z,-69
2019-06-29T13:33:54.180Z,-69
2019-06-29T13:36:22.030Z,-70
2019-06-29T13:38:49.832Z,-69
2019-06-29T13:41:17.688Z,-68
2019-06-29T13:43:45.836Z,-71
2019-06-29T13:46:13.665Z,-72
2019-06-29T13:48:42.297Z,-72
2019-06-29T13:51:10.156Z,-69
2019-06-29T13:53:38.243Z,-72
2019-06-29T13:56:07.074Z,-71
2019-06-29T13:58:34.850Z,-72
2019-06-29T14:01:02.662Z,-70
2019-06-29T14:03:30.520Z,-70
2019-06-29T14:05:58.337Z,-71
2019-06-29T14:08:26.169Z,-71
2019-06-29T14:10:53.959Z,-69
2019-06-29T14:13:21.803Z,-73
2019-06-29T14:15:49.652Z,-70
2019-06-29T14:18:17.505Z,-73
2019-06-29T14:20:45.390Z,-70
2019-06-29T14:23:14.977Z,-71
2019-06-29T14:25:48.659Z,-69
2019-06-29T14:28:12.692Z,-71
2019-06-29T14:30:41.564Z,-70
2019-06-29T14:33:09.453Z,-68
2019-06-29T14:35:39.359Z,-70
2019-06-29T14:38:07.067Z,-72
2019-06-29T14:40:36.697Z,-70
2019-06-29T14:43:05.250Z,-69
2019-06-29T14:45:34.608Z,-70
2019-06-29T14:48:04.318Z,-70
2019-06-29T14:50:34.156Z,-70
2019-06-29T14:53:04.794Z,-69
2019-06-29T14:55:32.336Z,-69
2019-06-29T14:58:00.202Z,-69
2019-06-29T15:00:28.012Z,-70
2019-06-29T15:02:55.868Z,-72
2019-06-29T15:05:23.674Z,-70
2019-06-29T15:07:52.374Z,-71
2019-06-29T15:10:21.191Z,-69
2019-06-29T15:12:49.018Z,-70
2019-06-29T15:15:17.843Z,-69
2019-06-29T15:17:45.720Z,-69
2019-06-29T15:20:14.888Z,-71
2019-06-29T15:22:42.679Z,-70
2019-06-29T15:25:10.666Z,-72
2019-06-29T15:27:38.490Z,-69
2019-06-29T15:30:06.990Z,-69
2019-06-29T15:32:47.928Z,-71
2019-06-29T15:35:06.600Z,-70
2019-06-29T15:37:34.744Z,-72
2019-06-29T15:40:03.099Z,-69
2019-06-29T15:42:30.958Z,-69
2019-06-29T15:44:58.730Z,-70
2019-06-29T15:47:27.349Z,-69
2019-06-29T15:49:55.188Z,-69
2019-06-29T15:52:23.432Z,-69
2019-06-29T15:54:51.667Z,-70
2019-06-29T15:57:19.477Z,-69
2019-06-29T15:59:47.296Z,-73
2019-06-29T16:02:17.435Z,-68
2019-06-29T16:04:45.280Z,-69
2019-06-29T16:07:13.114Z,-67
2019-06-29T16:09:42.833Z,-70
2019-06-29T16:12:10.674Z,-68
2019-06-29T16:14:38.566Z,-70
2019-06-29T16:17:06.409Z,-69
2019-06-29T16:19:34.207Z,-68
2019-06-29T16:22:02.129Z,-68
2019-06-29T16:24:29.929Z,-69
2019-06-29T16:26:57.742Z,-71
2019-06-29T16:29:25.546Z,-68
2019-06-29T16:31:55.616Z,-68
2019-06-29T16:34:24.157Z,-69
2019-06-29T16:36:51.967Z,-69
2019-06-29T16:39:19.743Z,-67
2019-06-29T16:41:48.462Z,-72
2019-06-29T16:44:16.533Z,-67
2019-06-29T16:46:44.364Z,-68
2019-06-29T16:49:12.167Z,-68
2019-06-29T16:51:39.938Z,-70
2019-06-29T16:54:07.718Z,-68
2019-06-29T16:56:35.525Z,-71
2019-06-29T16:59:03.442Z,-68
2019-06-29T17:01:31.370Z,-70
2019-06-29T17:03:59.192Z,-68
2019-06-29T17:06:27.033Z,-71
2019-06-29T17:08:54.894Z,-70
2019-06-29T17:11:22.692Z,-67
2019-06-29T17:13:50.499Z,-69
2019-06-29T17:16:18.323Z,-69
2019-06-29T17:18:46.936Z,-68
2019-06-29T17:21:15.026Z,-68
2019-06-29T17:23:42.940Z,-68
2019-06-29T17:26:13.010Z,-67
2019-06-29T17:28:41.251Z,-68
2019-06-29T17:31:09.071Z,-68
2019-06-29T17:33:53.025Z,-69
2019-06-29T17:36:06.595Z,-70
2019-06-29T17:38:34.440Z,-68
2019-06-29T17:41:02.269Z,-70
2019-06-29T17:43:30.123Z,-70
2019-06-29T17:45:57.916Z,-67
2019-06-29T17:48:26.284Z,-70
2019-06-29T17:50:54.145Z,-68
2019-06-29T17:53:21.986Z,-68
2019-06-29T17:55:49.826Z,-69
2019-06-29T17:58:17.614Z,-69
2019-06-29T18:00:45.477Z,-69
2019-06-29T18:03:13.291Z,-70
2019-06-29T18:05:41.295Z,-69
2019-06-29T18:08:09.099Z,-71
2019-06-29T18:10:36.896Z,-68
2019-06-29T18:13:04.686Z,-70
2019-06-29T18:15:32.499Z,-68
2019-06-29T18:18:00.301Z,-70
2019-06-29T18:20:28.083Z,-68
2019-06-29T18:22:55.906Z,-69
2019-06-29T18:25:23.871Z,-70
2019-06-29T18:27:51.693Z,-70
2019-06-29T18:30:21.003Z,-68
2019-06-29T18:32:48.867Z,-69
2019-06-29T18:35:16.714Z,-68
2019-06-29T18:37:44.657Z,-69
2019-06-29T18:40:15.823Z,-69
2019-06-29T18:42:44.085Z,-69
2019-06-29T18:45:14.089Z,-68
2019-06-29T18:47:42.438Z,-68
2019-06-29T18:50:10.347Z,-69
2019-06-29T18:52:38.154Z,-68
2019-06-29T18:55:07.388Z,-68
2019-06-29T18:57:35.216Z,-69
2019-06-29T19:00:03.478Z,-69
2019-06-29T19:02:31.309Z,-69
2019-06-29T19:04:59.116Z,-69
2019-06-29T19:07:26.952Z,-68
2019-06-29T19:09:54.760Z,-72
2019-06-29T19:12:22.557Z,-68
2019-06-29T19:14:50.362Z,-74
2019-06-29T19:17:18.457Z,-73
2019-06-29T19:19:46.247Z,-73
2019-06-29T19:22:14.108Z,-73
2019-06-29T19:24:41.925Z,-73
2019-06-29T19:27:09.723Z,-74
2019-06-29T19:29:37.564Z,-72
2019-06-29T19:32:05.393Z,-74
2019-06-29T19:34:33.487Z,-73
2019-06-29T19:37:02.767Z,-75
2019-06-29T19:39:30.635Z,-74
2019-06-29T19:41:59.812Z,-74
2019-06-29T19:44:27.661Z,-72
2019-06-29T19:46:55.452Z,-74
2019-06-29T19:49:24.716Z,-73
2019-06-29T19:51:52.517Z,-74
2019-06-29T19:54:20.326Z,-74
2019-06-29T19:56:48.128Z,-74
2019-06-29T19:59:15.981Z,-74
2019-06-29T20:01:43.808Z,-75
2019-06-29T20:04:11.596Z,-73
2019-06-29T20:06:39.464Z,-74
2019-06-29T20:09:07.321Z,-72
2019-06-29T20:11:35.188Z,-74
2019-06-29T20:14:02.990Z,-74
2019-06-29T20:16:30.813Z,-74
2019-06-29T20:18:58.901Z,-74
2019-06-29T20:21:26.702Z,-74
2019-06-29T20:23:54.507Z,-74
2019-06-29T20:26:24.430Z,-72
2019-06-29T20:28:52.415Z,-73
2019-06-29T20:31:20.274Z,-72
2019-06-29T20:33:48.208Z,-74
2019-06-29T20:36:16.090Z,-73
2019-06-29T20:38:43.966Z,-81
2019-06-29T20:41:11.780Z,-79
2019-06-29T20:43:41.905Z,-79
2019-06-29T20:46:10.356Z,-81
2019-06-29T20:48:40.848Z,-80
2019-06-29T20:51:07.945Z,-80
2019-06-29T20:53:35.816Z,-80
2019-06-29T20:56:04.416Z,-80
2019-06-29T20:58:32.245Z,-80
2019-06-29T21:01:00.089Z,-79
2019-06-29T21:03:27.901Z,-79
2019-06-29T21:05:55.768Z,-79
2019-06-29T21:08:23.565Z,-80
2019-06-29T21:10:51.395Z,-81
2019-06-29T21:13:19.210Z,-78
2019-06-29T21:15:49.241Z,-78
2019-06-29T21:18:18.486Z,-80
2019-06-29T21:20:46.327Z,-80
2019-06-29T21:23:14.396Z,-80
2019-06-29T21:25:44.328Z,-81
2019-06-29T21:28:12.491Z,-78
2019-06-29T21:30:40.332Z,-80
2019-06-29T21:33:10.001Z,-79
2019-06-29T21:35:37.823Z,-79
2019-06-29T21:38:05.685Z,-80
2019-06-29T21:40:33.595Z,-78
2019-06-29T21:43:01.415Z,-80
2019-06-29T21:45:29.246Z,-72
2019-06-29T21:47:57.076Z,-73
2019-06-29T21:50:24.901Z,-72
2019-06-29T21:52:52.709Z,-73
2019-06-29T21:55:20.514Z,-72
2019-06-29T21:57:48.370Z,-72
2019-06-29T22:00:19.202Z,-73
2019-06-29T22:02:47.002Z,-72
2019-06-29T22:05:14.960Z,-73
2019-06-29T22:07:42.846Z,-73
2019-06-29T22:10:11.658Z,-73
2019-06-29T22:12:39.449Z,-73
2019-06-29T22:15:10.336Z,-72
2019-06-29T22:17:40.857Z,-74
2019-06-29T22:20:10.122Z,-72
2019-06-29T22:22:39.030Z,-73
2019-06-29T22:25:08.605Z,-75
2019-06-29T22:27:37.294Z,-72
2019-06-29T22:30:08.960Z,-73
2019-06-29T22:32:37.261Z,-73
2019-06-29T22:35:07.101Z,-71
2019-06-29T22:37:34.953Z,-71
2019-06-29T22:40:03.196Z,-73
2019-06-29T22:42:30.971Z,-72
2019-06-29T22:44:58.782Z,-72
2019-06-29T22:47:26.719Z,-73
2019-06-29T22:49:54.489Z,-75
2019-06-29T22:52:22.359Z,-72
2019-06-29T22:54:51.783Z,-70
2019-06-29T22:57:19.660Z,-72
2019-06-29T22:59:47.484Z,-72
2019-06-29T23:02:15.325Z,-72
2019-06-29T23:04:43.147Z,-73
2019-06-29T23:07:11.149Z,-72
2019-06-29T23:09:38.976Z,-73
2019-06-29T23:12:06.851Z,-72
2019-06-29T23:14:35.173Z,-73
2019-06-29T23:17:02.981Z,-72
2019-06-29T23:19:30.871Z,-71
2019-06-29T23:21:58.658Z,-72
2019-06-29T23:24:26.483Z,-71
2019-06-29T23:26:54.272Z,-72
2019-06-29T23:29:22.089Z,-74
2019-06-29T23:31:49.879Z,-73
2019-06-29T23:34:17.669Z,-72
2019-06-29T23:36:45.500Z,-74
2019-06-29T23:39:13.325Z,-74
2019-06-29T23:41:41.929Z,-73
2019-06-29T23:44:09.759Z,-73
2019-06-29T23:46:37.577Z,-73
2019-06-29T23:49:05.377Z,-73
2019-06-29T23:51:33.277Z,-72
2019-06-29T23:54:01.074Z,-73
2019-06-29T23:56:28.882Z,-72
2019-06-29T23:58:56.707Z,-72
